Pagina principale
METAR-TAF:

METAR-TAF

Aeroporti :

Mahshahr, Iran

latitudine: 30-33-23N, longitudine: 049-09-07E, altezza: 2 m

Osservazione

Il bollettino è stato emesso 33 minuti fa, alle 10:00 UTC
Vento 19 kt da nord-ovest
Temperature 44°C
Umidità 5%
Pressione 1000 hPa
Visibilità: 8000 m

METAR: OIAM 071000Z 31019KT 8000 NSC 44/M05 Q1000

Ora: 15:03 (10:33 UTC)


TAF: mancante

Osservazioni e previsioni meteorologiche di più di 4000 aeroporti (messaggi METAR e TAF).

Le stazioni disponibili sono rappresentate dai dischi gialli e rossi sulla carta.

Puntare il mouse per vedere il nome della stazione.

Clicca sopra per visualizzare le osservazioni e previsioni meteorologiche.

Per cambiare la mappa : fare clic sui pulsanti verdi con una croce nera per ingrandire, il pulsante verde con un trattino per diminuire, o sulla freccia verde per le mappe adiacenti.


METAR-TAF: